sensor_id;sensor_type;location;lat;lon;timestamp;P1;durP1;ratioP1;P2;durP2;ratioP2
17414;SDS011;8825;48.086;16.426;2023-02-18T00:01:44;1.90;;;1.20;;
17414;SDS011;8825;48.086;16.426;2023-02-18T00:04:12;2.10;;;1.40;;
17414;SDS011;8825;48.086;16.426;2023-02-18T00:06:39;2.73;;;1.83;;
17414;SDS011;8825;48.086;16.426;2023-02-18T00:09:07;1.50;;;1.40;;
17414;SDS011;8825;48.086;16.426;2023-02-18T00:11:36;1.40;;;1.30;;
17414;SDS011;8825;48.086;16.426;2023-02-18T00:14:05;2.03;;;1.20;;
17414;SDS011;8825;48.086;16.426;2023-02-18T00:16:34;1.70;;;1.17;;
17414;SDS011;8825;48.086;16.426;2023-02-18T00:19:03;2.03;;;1.40;;
17414;SDS011;8825;48.086;16.426;2023-02-18T00:21:33;1.67;;;1.33;;
17414;SDS011;8825;48.086;16.426;2023-02-18T00:24:02;1.97;;;1.47;;
17414;SDS011;8825;48.086;16.426;2023-02-18T00:26:30;2.70;;;1.47;;
17414;SDS011;8825;48.086;16.426;2023-02-18T00:28:59;2.17;;;1.20;;
17414;SDS011;8825;48.086;16.426;2023-02-18T00:31:29;1.63;;;1.50;;
17414;SDS011;8825;48.086;16.426;2023-02-18T00:33:57;1.53;;;1.37;;
17414;SDS011;8825;48.086;16.426;2023-02-18T00:36:26;1.17;;;1.10;;
17414;SDS011;8825;48.086;16.426;2023-02-18T00:38:56;1.70;;;1.40;;
17414;SDS011;8825;48.086;16.426;2023-02-18T00:41:26;2.27;;;1.30;;
17414;SDS011;8825;48.086;16.426;2023-02-18T00:43:54;2.53;;;1.30;;
17414;SDS011;8825;48.086;16.426;2023-02-18T00:46:22;1.13;;;1.03;;
17414;SDS011;8825;48.086;16.426;2023-02-18T00:48:50;2.63;;;1.50;;
17414;SDS011;8825;48.086;16.426;2023-02-18T00:51:18;1.30;;;1.20;;
17414;SDS011;8825;48.086;16.426;2023-02-18T00:53:47;2.30;;;1.30;;
17414;SDS011;8825;48.086;16.426;2023-02-18T00:56:14;1.87;;;1.43;;
17414;SDS011;8825;48.086;16.426;2023-02-18T01:01:29;2.40;;;1.30;;
17414;SDS011;8825;48.086;16.426;2023-02-18T01:03:56;1.40;;;1.30;;
17414;SDS011;8825;48.086;16.426;2023-02-18T01:06:24;1.53;;;1.40;;
17414;SDS011;8825;48.086;16.426;2023-02-18T01:08:51;1.87;;;1.40;;
17414;SDS011;8825;48.086;16.426;2023-02-18T01:11:19;1.83;;;1.13;;
17414;SDS011;8825;48.086;16.426;2023-02-18T01:13:47;1.67;;;1.30;;
17414;SDS011;8825;48.086;16.426;2023-02-18T01:16:15;2.27;;;1.37;;
17414;SDS011;8825;48.086;16.426;2023-02-18T01:18:43;1.33;;;1.23;;
17414;SDS011;8825;48.086;16.426;2023-02-18T01:21:10;2.37;;;1.50;;
17414;SDS011;8825;48.086;16.426;2023-02-18T01:23:39;1.90;;;1.43;;
17414;SDS011;8825;48.086;16.426;2023-02-18T01:26:08;1.87;;;1.40;;
17414;SDS011;8825;48.086;16.426;2023-02-18T01:28:37;2.07;;;1.43;;
17414;SDS011;8825;48.086;16.426;2023-02-18T01:31:07;1.37;;;1.27;;
17414;SDS011;8825;48.086;16.426;2023-02-18T01:33:36;2.80;;;1.40;;
17414;SDS011;8825;48.086;16.426;2023-02-18T01:36:04;1.80;;;1.33;;
17414;SDS011;8825;48.086;16.426;2023-02-18T01:38:35;1.40;;;1.30;;
17414;SDS011;8825;48.086;16.426;2023-02-18T01:41:02;1.73;;;1.40;;
17414;SDS011;8825;48.086;16.426;2023-02-18T01:43:30;1.30;;;1.20;;
17414;SDS011;8825;48.086;16.426;2023-02-18T01:45:59;1.30;;;1.20;;
17414;SDS011;8825;48.086;16.426;2023-02-18T01:48:33;1.50;;;1.37;;
17414;SDS011;8825;48.086;16.426;2023-02-18T01:51:16;2.10;;;1.50;;
17414;SDS011;8825;48.086;16.426;2023-02-18T01:53:49;2.07;;;1.60;;
17414;SDS011;8825;48.086;16.426;2023-02-18T01:59:27;1.70;;;1.50;;
17414;SDS011;8825;48.086;16.426;2023-02-18T02:01:52;2.27;;;1.30;;
17414;SDS011;8825;48.086;16.426;2023-02-18T02:04:21;3.03;;;1.73;;
17414;SDS011;8825;48.086;16.426;2023-02-18T02:06:48;1.77;;;1.40;;
17414;SDS011;8825;48.086;16.426;2023-02-18T02:09:17;1.50;;;1.30;;
17414;SDS011;8825;48.086;16.426;2023-02-18T02:17:21;1.67;;;1.50;;
17414;SDS011;8825;48.086;16.426;2023-02-18T02:19:56;1.50;;;1.40;;
17414;SDS011;8825;48.086;16.426;2023-02-18T02:31:40;2.97;;;1.60;;
17414;SDS011;8825;48.086;16.426;2023-02-18T02:48:37;1.93;;;1.43;;
17414;SDS011;8825;48.086;16.426;2023-02-18T02:53:43;1.93;;;1.63;;
17414;SDS011;8825;48.086;16.426;2023-02-18T02:56:17;1.50;;;1.30;;
17414;SDS011;8825;48.086;16.426;2023-02-18T02:58:51;1.87;;;1.60;;
17414;SDS011;8825;48.086;16.426;2023-02-18T03:03:59;4.80;;;1.70;;
17414;SDS011;8825;48.086;16.426;2023-02-18T03:06:46;1.57;;;1.40;;
17414;SDS011;8825;48.086;16.426;2023-02-18T03:12:04;1.70;;;1.53;;
17414;SDS011;8825;48.086;16.426;2023-02-18T03:14:38;1.80;;;1.50;;
17414;SDS011;8825;48.086;16.426;2023-02-18T03:17:24;2.13;;;1.40;;
17414;SDS011;8825;48.086;16.426;2023-02-18T03:19:51;2.27;;;1.70;;
17414;SDS011;8825;48.086;16.426;2023-02-18T03:22:26;2.67;;;1.40;;
17414;SDS011;8825;48.086;16.426;2023-02-18T03:24:56;2.30;;;1.37;;
17414;SDS011;8825;48.086;16.426;2023-02-18T03:27:32;1.73;;;1.47;;
17414;SDS011;8825;48.086;16.426;2023-02-18T03:30:03;1.63;;;1.53;;
17414;SDS011;8825;48.086;16.426;2023-02-18T03:32:32;1.70;;;1.50;;
17414;SDS011;8825;48.086;16.426;2023-02-18T03:35:02;2.13;;;1.53;;
17414;SDS011;8825;48.086;16.426;2023-02-18T03:37:31;2.13;;;1.37;;
17414;SDS011;8825;48.086;16.426;2023-02-18T03:40:02;2.00;;;1.57;;
17414;SDS011;8825;48.086;16.426;2023-02-18T03:42:31;1.50;;;1.40;;
17414;SDS011;8825;48.086;16.426;2023-02-18T03:44:58;1.57;;;1.47;;
17414;SDS011;8825;48.086;16.426;2023-02-18T03:47:26;2.07;;;1.40;;
17414;SDS011;8825;48.086;16.426;2023-02-18T03:49:54;1.80;;;1.30;;
17414;SDS011;8825;48.086;16.426;2023-02-18T03:52:21;2.20;;;1.77;;
17414;SDS011;8825;48.086;16.426;2023-02-18T03:54:49;1.30;;;1.20;;
17414;SDS011;8825;48.086;16.426;2023-02-18T03:57:16;1.90;;;1.33;;
17414;SDS011;8825;48.086;16.426;2023-02-18T03:59:44;1.60;;;1.30;;
17414;SDS011;8825;48.086;16.426;2023-02-18T04:02:11;2.33;;;1.50;;
17414;SDS011;8825;48.086;16.426;2023-02-18T04:04:39;1.50;;;1.40;;
17414;SDS011;8825;48.086;16.426;2023-02-18T04:07:06;2.20;;;1.50;;
17414;SDS011;8825;48.086;16.426;2023-02-18T04:09:34;2.30;;;1.33;;
17414;SDS011;8825;48.086;16.426;2023-02-18T04:12:01;1.20;;;1.10;;
17414;SDS011;8825;48.086;16.426;2023-02-18T04:14:29;1.87;;;1.40;;
17414;SDS011;8825;48.086;16.426;2023-02-18T04:16:56;1.30;;;1.20;;
17414;SDS011;8825;48.086;16.426;2023-02-18T04:19:24;1.10;;;1.10;;
17414;SDS011;8825;48.086;16.426;2023-02-18T04:21:51;1.40;;;1.20;;
17414;SDS011;8825;48.086;16.426;2023-02-18T04:24:19;1.30;;;1.20;;
17414;SDS011;8825;48.086;16.426;2023-02-18T04:26:46;1.93;;;1.20;;
17414;SDS011;8825;48.086;16.426;2023-02-18T04:29:14;1.43;;;1.30;;
17414;SDS011;8825;48.086;16.426;2023-02-18T04:31:42;1.00;;;1.00;;
17414;SDS011;8825;48.086;16.426;2023-02-18T04:34:09;1.30;;;1.10;;
17414;SDS011;8825;48.086;16.426;2023-02-18T04:36:37;1.27;;;1.17;;
17414;SDS011;8825;48.086;16.426;2023-02-18T04:39:04;1.30;;;1.20;;
17414;SDS011;8825;48.086;16.426;2023-02-18T04:41:32;1.40;;;1.30;;
17414;SDS011;8825;48.086;16.426;2023-02-18T04:43:59;1.63;;;0.90;;
17414;SDS011;8825;48.086;16.426;2023-02-18T04:46:26;0.97;;;0.93;;
17414;SDS011;8825;48.086;16.426;2023-02-18T04:48:54;1.83;;;1.10;;
17414;SDS011;8825;48.086;16.426;2023-02-18T04:51:21;1.20;;;1.10;;
17414;SDS011;8825;48.086;16.426;2023-02-18T04:53:49;1.37;;;1.00;;
17414;SDS011;8825;48.086;16.426;2023-02-18T04:56:17;1.53;;;1.17;;
17414;SDS011;8825;48.086;16.426;2023-02-18T04:58:45;0.97;;;0.97;;
17414;SDS011;8825;48.086;16.426;2023-02-18T05:03:59;1.20;;;1.10;;
17414;SDS011;8825;48.086;16.426;2023-02-18T05:06:27;1.70;;;1.10;;
17414;SDS011;8825;48.086;16.426;2023-02-18T05:08:54;1.40;;;1.30;;
17414;SDS011;8825;48.086;16.426;2023-02-18T05:11:22;2.13;;;1.20;;
17414;SDS011;8825;48.086;16.426;2023-02-18T05:13:49;0.90;;;0.90;;
17414;SDS011;8825;48.086;16.426;2023-02-18T05:16:17;1.07;;;1.00;;
17414;SDS011;8825;48.086;16.426;2023-02-18T05:18:44;1.20;;;1.10;;
17414;SDS011;8825;48.086;16.426;2023-02-18T05:21:12;1.37;;;1.10;;
17414;SDS011;8825;48.086;16.426;2023-02-18T05:23:39;1.87;;;1.10;;
17414;SDS011;8825;48.086;16.426;2023-02-18T05:26:07;1.47;;;1.00;;
17414;SDS011;8825;48.086;16.426;2023-02-18T05:28:34;1.10;;;1.00;;
17414;SDS011;8825;48.086;16.426;2023-02-18T05:31:02;1.30;;;1.20;;
17414;SDS011;8825;48.086;16.426;2023-02-18T05:33:29;2.90;;;1.30;;
17414;SDS011;8825;48.086;16.426;2023-02-18T05:35:57;0.83;;;0.83;;
17414;SDS011;8825;48.086;16.426;2023-02-18T05:38:24;1.40;;;0.97;;
17414;SDS011;8825;48.086;16.426;2023-02-18T05:40:52;0.90;;;0.90;;
17414;SDS011;8825;48.086;16.426;2023-02-18T05:43:20;1.20;;;1.10;;
17414;SDS011;8825;48.086;16.426;2023-02-18T05:45:48;1.00;;;0.90;;
17414;SDS011;8825;48.086;16.426;2023-02-18T05:48:15;1.27;;;1.10;;
17414;SDS011;8825;48.086;16.426;2023-02-18T05:50:43;0.80;;;0.80;;
17414;SDS011;8825;48.086;16.426;2023-02-18T05:53:10;1.10;;;1.00;;
17414;SDS011;8825;48.086;16.426;2023-02-18T05:55:38;1.40;;;1.30;;
17414;SDS011;8825;48.086;16.426;2023-02-18T05:58:06;1.10;;;1.00;;
17414;SDS011;8825;48.086;16.426;2023-02-18T06:00:34;1.07;;;0.90;;
17414;SDS011;8825;48.086;16.426;2023-02-18T06:03:01;0.80;;;0.80;;
17414;SDS011;8825;48.086;16.426;2023-02-18T06:05:29;0.97;;;0.90;;
17414;SDS011;8825;48.086;16.426;2023-02-18T06:07:56;0.80;;;0.80;;
17414;SDS011;8825;48.086;16.426;2023-02-18T06:10:24;1.00;;;1.00;;
17414;SDS011;8825;48.086;16.426;2023-02-18T06:12:51;0.90;;;0.90;;
17414;SDS011;8825;48.086;16.426;2023-02-18T06:15:19;0.90;;;0.90;;
17414;SDS011;8825;48.086;16.426;2023-02-18T06:17:46;0.90;;;0.90;;
17414;SDS011;8825;48.086;16.426;2023-02-18T06:20:14;1.10;;;1.00;;
17414;SDS011;8825;48.086;16.426;2023-02-18T06:22:41;1.23;;;1.13;;
17414;SDS011;8825;48.086;16.426;2023-02-18T06:25:09;1.17;;;0.93;;
17414;SDS011;8825;48.086;16.426;2023-02-18T06:27:36;1.03;;;0.93;;
17414;SDS011;8825;48.086;16.426;2023-02-18T06:30:06;0.70;;;0.70;;
17414;SDS011;8825;48.086;16.426;2023-02-18T06:32:52;0.93;;;0.90;;
17414;SDS011;8825;48.086;16.426;2023-02-18T06:35:20;0.90;;;0.80;;
17414;SDS011;8825;48.086;16.426;2023-02-18T06:37:47;1.30;;;0.87;;
17414;SDS011;8825;48.086;16.426;2023-02-18T06:40:15;1.03;;;0.93;;
17414;SDS011;8825;48.086;16.426;2023-02-18T06:42:43;1.03;;;1.00;;
17414;SDS011;8825;48.086;16.426;2023-02-18T06:45:11;1.53;;;0.90;;
17414;SDS011;8825;48.086;16.426;2023-02-18T06:47:38;1.13;;;1.03;;
17414;SDS011;8825;48.086;16.426;2023-02-18T06:50:06;0.90;;;0.90;;
17414;SDS011;8825;48.086;16.426;2023-02-18T06:52:34;1.03;;;1.00;;
17414;SDS011;8825;48.086;16.426;2023-02-18T06:55:03;1.53;;;0.90;;
17414;SDS011;8825;48.086;16.426;2023-02-18T06:57:32;1.13;;;1.00;;
17414;SDS011;8825;48.086;16.426;2023-02-18T07:00:00;1.00;;;1.00;;
17414;SDS011;8825;48.086;16.426;2023-02-18T07:02:27;1.63;;;1.00;;
17414;SDS011;8825;48.086;16.426;2023-02-18T07:04:55;1.03;;;0.93;;
17414;SDS011;8825;48.086;16.426;2023-02-18T07:07:22;1.13;;;1.07;;
17414;SDS011;8825;48.086;16.426;2023-02-18T07:09:49;1.17;;;1.00;;
17414;SDS011;8825;48.086;16.426;2023-02-18T07:12:17;0.93;;;0.90;;
17414;SDS011;8825;48.086;16.426;2023-02-18T07:14:45;1.10;;;0.80;;
17414;SDS011;8825;48.086;16.426;2023-02-18T07:17:12;0.80;;;0.80;;
17414;SDS011;8825;48.086;16.426;2023-02-18T07:19:40;1.37;;;1.10;;
17414;SDS011;8825;48.086;16.426;2023-02-18T07:22:08;1.00;;;1.00;;
17414;SDS011;8825;48.086;16.426;2023-02-18T07:24:35;1.10;;;1.00;;
17414;SDS011;8825;48.086;16.426;2023-02-18T07:27:03;2.17;;;1.00;;
17414;SDS011;8825;48.086;16.426;2023-02-18T07:29:30;1.20;;;1.10;;
17414;SDS011;8825;48.086;16.426;2023-02-18T07:31:58;1.20;;;1.10;;
17414;SDS011;8825;48.086;16.426;2023-02-18T07:34:25;0.90;;;0.90;;
17414;SDS011;8825;48.086;16.426;2023-02-18T07:36:53;1.00;;;1.00;;
17414;SDS011;8825;48.086;16.426;2023-02-18T07:39:20;1.10;;;0.90;;
17414;SDS011;8825;48.086;16.426;2023-02-18T07:41:48;1.10;;;1.00;;
17414;SDS011;8825;48.086;16.426;2023-02-18T07:44:15;1.17;;;1.07;;
17414;SDS011;8825;48.086;16.426;2023-02-18T07:46:43;2.67;;;1.07;;
17414;SDS011;8825;48.086;16.426;2023-02-18T07:49:10;1.60;;;1.10;;
17414;SDS011;8825;48.086;16.426;2023-02-18T07:51:38;0.90;;;0.90;;
17414;SDS011;8825;48.086;16.426;2023-02-18T07:54:05;1.47;;;1.10;;
17414;SDS011;8825;48.086;16.426;2023-02-18T07:56:33;1.10;;;1.00;;
17414;SDS011;8825;48.086;16.426;2023-02-18T07:59:01;1.77;;;1.20;;
17414;SDS011;8825;48.086;16.426;2023-02-18T08:01:28;1.00;;;1.00;;
17414;SDS011;8825;48.086;16.426;2023-02-18T08:03:56;1.90;;;1.10;;
17414;SDS011;8825;48.086;16.426;2023-02-18T08:06:27;1.40;;;1.20;;
17414;SDS011;8825;48.086;16.426;2023-02-18T08:11:43;1.63;;;1.00;;
17414;SDS011;8825;48.086;16.426;2023-02-18T08:14:10;1.13;;;1.00;;
17414;SDS011;8825;48.086;16.426;2023-02-18T08:16:38;1.30;;;1.07;;
17414;SDS011;8825;48.086;16.426;2023-02-18T08:21:52;1.63;;;1.07;;
17414;SDS011;8825;48.086;16.426;2023-02-18T08:24:20;1.10;;;1.10;;
17414;SDS011;8825;48.086;16.426;2023-02-18T08:26:47;1.33;;;1.10;;
17414;SDS011;8825;48.086;16.426;2023-02-18T08:29:15;1.30;;;1.20;;
17414;SDS011;8825;48.086;16.426;2023-02-18T08:31:42;1.17;;;1.07;;
17414;SDS011;8825;48.086;16.426;2023-02-18T08:34:10;2.60;;;1.30;;
17414;SDS011;8825;48.086;16.426;2023-02-18T08:36:37;1.37;;;1.03;;
17414;SDS011;8825;48.086;16.426;2023-02-18T08:39:05;1.50;;;1.40;;
17414;SDS011;8825;48.086;16.426;2023-02-18T08:41:32;1.97;;;1.00;;
17414;SDS011;8825;48.086;16.426;2023-02-18T08:44:00;1.23;;;1.13;;
17414;SDS011;8825;48.086;16.426;2023-02-18T08:46:27;1.40;;;1.00;;
17414;SDS011;8825;48.086;16.426;2023-02-18T08:48:55;0.97;;;0.97;;
17414;SDS011;8825;48.086;16.426;2023-02-18T08:51:23;1.17;;;0.97;;
17414;SDS011;8825;48.086;16.426;2023-02-18T08:53:51;2.87;;;1.00;;
17414;SDS011;8825;48.086;16.426;2023-02-18T08:56:18;1.10;;;1.00;;
17414;SDS011;8825;48.086;16.426;2023-02-18T08:58:46;1.40;;;1.30;;
17414;SDS011;8825;48.086;16.426;2023-02-18T09:01:13;1.93;;;0.93;;
17414;SDS011;8825;48.086;16.426;2023-02-18T09:03:41;1.10;;;0.90;;
17414;SDS011;8825;48.086;16.426;2023-02-18T09:06:08;1.20;;;1.10;;
17414;SDS011;8825;48.086;16.426;2023-02-18T09:08:37;1.10;;;1.00;;
17414;SDS011;8825;48.086;16.426;2023-02-18T09:11:04;1.20;;;1.10;;
17414;SDS011;8825;48.086;16.426;2023-02-18T09:13:32;1.33;;;1.00;;
17414;SDS011;8825;48.086;16.426;2023-02-18T09:16:01;1.80;;;1.13;;
17414;SDS011;8825;48.086;16.426;2023-02-18T09:18:31;2.53;;;1.10;;
17414;SDS011;8825;48.086;16.426;2023-02-18T09:21:01;1.20;;;1.10;;
17414;SDS011;8825;48.086;16.426;2023-02-18T09:23:30;1.10;;;1.00;;
17414;SDS011;8825;48.086;16.426;2023-02-18T09:25:59;1.10;;;1.10;;
17414;SDS011;8825;48.086;16.426;2023-02-18T09:28:28;1.10;;;1.00;;
17414;SDS011;8825;48.086;16.426;2023-02-18T09:30:56;1.70;;;1.10;;
17414;SDS011;8825;48.086;16.426;2023-02-18T09:33:25;1.00;;;0.90;;
17414;SDS011;8825;48.086;16.426;2023-02-18T09:35:52;2.30;;;1.10;;
17414;SDS011;8825;48.086;16.426;2023-02-18T09:38:20;0.97;;;0.97;;
17414;SDS011;8825;48.086;16.426;2023-02-18T09:40:48;1.10;;;1.00;;
17414;SDS011;8825;48.086;16.426;2023-02-18T09:43:40;0.90;;;0.90;;
17414;SDS011;8825;48.086;16.426;2023-02-18T09:45:58;2.00;;;1.00;;
17414;SDS011;8825;48.086;16.426;2023-02-18T09:48:27;0.80;;;0.80;;
17414;SDS011;8825;48.086;16.426;2023-02-18T09:50:57;1.10;;;1.00;;
17414;SDS011;8825;48.086;16.426;2023-02-18T09:53:25;1.53;;;1.10;;
17414;SDS011;8825;48.086;16.426;2023-02-18T09:55:54;2.40;;;1.00;;
17414;SDS011;8825;48.086;16.426;2023-02-18T09:58:27;1.60;;;1.20;;
17414;SDS011;8825;48.086;16.426;2023-02-18T10:01:43;1.20;;;1.10;;
17414;SDS011;8825;48.086;16.426;2023-02-18T10:03:42;1.50;;;1.37;;
17414;SDS011;8825;48.086;16.426;2023-02-18T10:06:33;1.13;;;1.10;;
17414;SDS011;8825;48.086;16.426;2023-02-18T10:11:37;2.37;;;2.10;;
17414;SDS011;8825;48.086;16.426;2023-02-18T10:14:04;1.17;;;1.00;;
17414;SDS011;8825;48.086;16.426;2023-02-18T10:16:33;2.47;;;1.50;;
17414;SDS011;8825;48.086;16.426;2023-02-18T10:19:08;1.33;;;1.23;;
17414;SDS011;8825;48.086;16.426;2023-02-18T10:21:32;1.10;;;1.00;;
17414;SDS011;8825;48.086;16.426;2023-02-18T10:24:11;1.10;;;1.00;;
17414;SDS011;8825;48.086;16.426;2023-02-18T10:26:56;1.03;;;0.97;;
17414;SDS011;8825;48.086;16.426;2023-02-18T10:29:25;1.10;;;1.00;;
17414;SDS011;8825;48.086;16.426;2023-02-18T10:31:56;1.03;;;0.93;;
17414;SDS011;8825;48.086;16.426;2023-02-18T10:34:45;0.93;;;0.83;;
17414;SDS011;8825;48.086;16.426;2023-02-18T10:37:35;1.20;;;1.10;;
17414;SDS011;8825;48.086;16.426;2023-02-18T10:40:08;1.50;;;0.87;;
17414;SDS011;8825;48.086;16.426;2023-02-18T10:51:34;1.00;;;0.90;;
17414;SDS011;8825;48.086;16.426;2023-02-18T10:54:04;1.00;;;0.90;;
17414;SDS011;8825;48.086;16.426;2023-02-18T10:56:40;1.07;;;0.90;;
17414;SDS011;8825;48.086;16.426;2023-02-18T10:59:30;0.80;;;0.80;;
17414;SDS011;8825;48.086;16.426;2023-02-18T11:01:54;0.80;;;0.80;;
17414;SDS011;8825;48.086;16.426;2023-02-18T11:04:25;1.00;;;0.90;;
17414;SDS011;8825;48.086;16.426;2023-02-18T11:06:54;1.83;;;0.97;;
17414;SDS011;8825;48.086;16.426;2023-02-18T11:09:25;0.90;;;0.90;;
17414;SDS011;8825;48.086;16.426;2023-02-18T11:15:05;2.07;;;1.10;;
17414;SDS011;8825;48.086;16.426;2023-02-18T11:17:34;1.10;;;1.10;;
17414;SDS011;8825;48.086;16.426;2023-02-18T11:20:18;1.60;;;1.10;;
17414;SDS011;8825;48.086;16.426;2023-02-18T11:22:34;1.20;;;1.10;;
17414;SDS011;8825;48.086;16.426;2023-02-18T11:25:18;1.13;;;1.03;;
17414;SDS011;8825;48.086;16.426;2023-02-18T11:27:54;1.20;;;1.10;;
17414;SDS011;8825;48.086;16.426;2023-02-18T11:30:26;1.30;;;1.10;;
17414;SDS011;8825;48.086;16.426;2023-02-18T11:32:54;1.00;;;1.00;;
17414;SDS011;8825;48.086;16.426;2023-02-18T11:35:26;2.40;;;1.20;;
17414;SDS011;8825;48.086;16.426;2023-02-18T11:37:56;1.27;;;1.17;;
17414;SDS011;8825;48.086;16.426;2023-02-18T11:40:30;1.33;;;1.20;;
17414;SDS011;8825;48.086;16.426;2023-02-18T11:43:06;1.17;;;1.07;;
17414;SDS011;8825;48.086;16.426;2023-02-18T11:46:06;1.30;;;1.00;;
17414;SDS011;8825;48.086;16.426;2023-02-18T11:48:36;1.23;;;1.13;;
17414;SDS011;8825;48.086;16.426;2023-02-18T11:51:04;1.00;;;1.00;;
17414;SDS011;8825;48.086;16.426;2023-02-18T11:53:33;1.23;;;0.90;;
17414;SDS011;8825;48.086;16.426;2023-02-18T11:56:03;1.10;;;1.10;;
17414;SDS011;8825;48.086;16.426;2023-02-18T11:58:38;1.20;;;1.10;;
17414;SDS011;8825;48.086;16.426;2023-02-18T12:01:09;1.23;;;1.10;;
17414;SDS011;8825;48.086;16.426;2023-02-18T12:03:44;1.10;;;1.00;;
17414;SDS011;8825;48.086;16.426;2023-02-18T12:06:20;1.10;;;1.00;;
17414;SDS011;8825;48.086;16.426;2023-02-18T12:09:05;1.03;;;1.00;;
17414;SDS011;8825;48.086;16.426;2023-02-18T12:11:46;1.43;;;1.00;;
17414;SDS011;8825;48.086;16.426;2023-02-18T12:14:24;1.20;;;1.10;;
17414;SDS011;8825;48.086;16.426;2023-02-18T12:27:58;2.10;;;0.93;;
17414;SDS011;8825;48.086;16.426;2023-02-18T12:33:35;1.00;;;0.90;;
17414;SDS011;8825;48.086;16.426;2023-02-18T12:39:01;0.83;;;0.80;;
17414;SDS011;8825;48.086;16.426;2023-02-18T12:44:33;0.83;;;0.83;;
17414;SDS011;8825;48.086;16.426;2023-02-18T12:47:41;0.90;;;0.90;;
17414;SDS011;8825;48.086;16.426;2023-02-18T12:53:23;1.00;;;1.00;;
17414;SDS011;8825;48.086;16.426;2023-02-18T12:56:14;2.03;;;0.83;;
17414;SDS011;8825;48.086;16.426;2023-02-18T13:04:18;1.23;;;0.97;;
17414;SDS011;8825;48.086;16.426;2023-02-18T13:18:03;0.90;;;0.90;;
17414;SDS011;8825;48.086;16.426;2023-02-18T13:20:47;1.20;;;1.10;;
17414;SDS011;8825;48.086;16.426;2023-02-18T13:23:20;1.07;;;0.90;;
17414;SDS011;8825;48.086;16.426;2023-02-18T13:25:54;1.60;;;0.80;;
17414;SDS011;8825;48.086;16.426;2023-02-18T13:28:25;0.73;;;0.73;;
17414;SDS011;8825;48.086;16.426;2023-02-18T13:31:00;1.70;;;1.00;;
17414;SDS011;8825;48.086;16.426;2023-02-18T13:33:46;0.90;;;0.90;;
17414;SDS011;8825;48.086;16.426;2023-02-18T13:39:03;1.00;;;0.90;;
17414;SDS011;8825;48.086;16.426;2023-02-18T13:41:40;1.63;;;0.80;;
17414;SDS011;8825;48.086;16.426;2023-02-18T13:44:07;0.77;;;0.77;;
17414;SDS011;8825;48.086;16.426;2023-02-18T13:46:57;0.70;;;0.70;;
17414;SDS011;8825;48.086;16.426;2023-02-18T13:49:32;1.60;;;0.83;;
17414;SDS011;8825;48.086;16.426;2023-02-18T13:52:01;0.80;;;0.80;;
17414;SDS011;8825;48.086;16.426;2023-02-18T13:54:44;1.13;;;0.80;;
17414;SDS011;8825;48.086;16.426;2023-02-18T13:57:21;0.70;;;0.70;;
17414;SDS011;8825;48.086;16.426;2023-02-18T13:59:57;0.60;;;0.60;;
17414;SDS011;8825;48.086;16.426;2023-02-18T14:02:55;0.70;;;0.70;;
17414;SDS011;8825;48.086;16.426;2023-02-18T14:05:25;0.70;;;0.70;;
17414;SDS011;8825;48.086;16.426;2023-02-18T14:08:32;1.53;;;0.73;;
17414;SDS011;8825;48.086;16.426;2023-02-18T14:13:53;0.77;;;0.77;;
17414;SDS011;8825;48.086;16.426;2023-02-18T14:16:24;0.70;;;0.70;;
17414;SDS011;8825;48.086;16.426;2023-02-18T14:18:56;1.63;;;0.50;;
17414;SDS011;8825;48.086;16.426;2023-02-18T14:21:41;1.00;;;0.70;;
17414;SDS011;8825;48.086;16.426;2023-02-18T14:24:10;0.70;;;0.70;;
17414;SDS011;8825;48.086;16.426;2023-02-18T14:26:39;0.70;;;0.70;;
17414;SDS011;8825;48.086;16.426;2023-02-18T14:29:14;0.73;;;0.73;;
17414;SDS011;8825;48.086;16.426;2023-02-18T14:31:49;0.87;;;0.87;;
17414;SDS011;8825;48.086;16.426;2023-02-18T14:39:43;0.70;;;0.70;;
17414;SDS011;8825;48.086;16.426;2023-02-18T14:45:27;0.80;;;0.80;;
17414;SDS011;8825;48.086;16.426;2023-02-18T14:48:06;0.63;;;0.63;;
17414;SDS011;8825;48.086;16.426;2023-02-18T14:50:45;0.57;;;0.57;;
17414;SDS011;8825;48.086;16.426;2023-02-18T14:56:03;0.70;;;0.70;;
17414;SDS011;8825;48.086;16.426;2023-02-18T14:58:38;0.97;;;0.63;;
17414;SDS011;8825;48.086;16.426;2023-02-18T15:01:18;0.80;;;0.80;;
17414;SDS011;8825;48.086;16.426;2023-02-18T15:03:50;0.80;;;0.80;;
17414;SDS011;8825;48.086;16.426;2023-02-18T15:06:24;0.70;;;0.70;;
17414;SDS011;8825;48.086;16.426;2023-02-18T15:08:57;1.10;;;0.77;;
17414;SDS011;8825;48.086;16.426;2023-02-18T15:11:48;1.30;;;0.97;;
17414;SDS011;8825;48.086;16.426;2023-02-18T15:14:24;0.77;;;0.67;;
17414;SDS011;8825;48.086;16.426;2023-02-18T15:16:53;0.73;;;0.73;;
17414;SDS011;8825;48.086;16.426;2023-02-18T15:19:22;0.93;;;0.80;;
17414;SDS011;8825;48.086;16.426;2023-02-18T15:21:52;0.50;;;0.50;;
17414;SDS011;8825;48.086;16.426;2023-02-18T15:24:31;0.67;;;0.67;;
17414;SDS011;8825;48.086;16.426;2023-02-18T15:27:11;1.13;;;0.80;;
17414;SDS011;8825;48.086;16.426;2023-02-18T15:33:09;0.80;;;0.80;;
17414;SDS011;8825;48.086;16.426;2023-02-18T15:35:19;0.90;;;0.70;;
17414;SDS011;8825;48.086;16.426;2023-02-18T15:37:52;1.37;;;1.00;;
17414;SDS011;8825;48.086;16.426;2023-02-18T15:40:24;1.10;;;0.80;;
17414;SDS011;8825;48.086;16.426;2023-02-18T15:42:59;0.70;;;0.70;;
17414;SDS011;8825;48.086;16.426;2023-02-18T15:48:20;0.73;;;0.73;;
17414;SDS011;8825;48.086;16.426;2023-02-18T15:51:01;0.70;;;0.70;;
17414;SDS011;8825;48.086;16.426;2023-02-18T15:53:29;0.90;;;0.90;;
17414;SDS011;8825;48.086;16.426;2023-02-18T15:55:59;1.30;;;0.93;;
17414;SDS011;8825;48.086;16.426;2023-02-18T15:58:30;1.10;;;0.80;;
17414;SDS011;8825;48.086;16.426;2023-02-18T16:00:59;0.90;;;0.70;;
17414;SDS011;8825;48.086;16.426;2023-02-18T16:03:41;0.80;;;0.80;;
17414;SDS011;8825;48.086;16.426;2023-02-18T16:06:11;0.80;;;0.80;;
17414;SDS011;8825;48.086;16.426;2023-02-18T16:08:37;0.80;;;0.80;;
17414;SDS011;8825;48.086;16.426;2023-02-18T16:13:54;0.83;;;0.83;;
17414;SDS011;8825;48.086;16.426;2023-02-18T16:16:22;0.93;;;0.93;;
17414;SDS011;8825;48.086;16.426;2023-02-18T16:18:52;0.93;;;0.90;;
17414;SDS011;8825;48.086;16.426;2023-02-18T16:23:51;0.90;;;0.90;;
17414;SDS011;8825;48.086;16.426;2023-02-18T16:26:26;1.73;;;0.87;;
17414;SDS011;8825;48.086;16.426;2023-02-18T16:29:00;0.87;;;0.87;;
17414;SDS011;8825;48.086;16.426;2023-02-18T16:31:48;1.37;;;1.00;;
17414;SDS011;8825;48.086;16.426;2023-02-18T16:34:15;0.90;;;0.90;;
17414;SDS011;8825;48.086;16.426;2023-02-18T16:36:43;1.47;;;1.10;;
17414;SDS011;8825;48.086;16.426;2023-02-18T16:39:29;0.90;;;0.90;;
17414;SDS011;8825;48.086;16.426;2023-02-18T16:41:59;0.70;;;0.70;;
17414;SDS011;8825;48.086;16.426;2023-02-18T16:44:27;1.10;;;1.00;;
17414;SDS011;8825;48.086;16.426;2023-02-18T16:46:55;0.97;;;0.80;;
17414;SDS011;8825;48.086;16.426;2023-02-18T16:49:23;0.80;;;0.80;;
17414;SDS011;8825;48.086;16.426;2023-02-18T16:51:51;1.10;;;0.97;;
17414;SDS011;8825;48.086;16.426;2023-02-18T16:54:18;1.67;;;0.80;;
17414;SDS011;8825;48.086;16.426;2023-02-18T16:56:46;0.80;;;0.80;;
17414;SDS011;8825;48.086;16.426;2023-02-18T16:59:13;1.20;;;0.90;;
17414;SDS011;8825;48.086;16.426;2023-02-18T17:01:41;1.90;;;1.00;;
17414;SDS011;8825;48.086;16.426;2023-02-18T17:04:11;1.10;;;1.00;;
17414;SDS011;8825;48.086;16.426;2023-02-18T17:06:42;1.13;;;1.00;;
17414;SDS011;8825;48.086;16.426;2023-02-18T17:09:14;1.00;;;0.90;;
17414;SDS011;8825;48.086;16.426;2023-02-18T17:11:45;0.80;;;0.80;;
17414;SDS011;8825;48.086;16.426;2023-02-18T17:14:20;2.60;;;1.00;;
17414;SDS011;8825;48.086;16.426;2023-02-18T17:16:45;0.73;;;0.73;;
17414;SDS011;8825;48.086;16.426;2023-02-18T17:19:14;0.97;;;0.97;;
17414;SDS011;8825;48.086;16.426;2023-02-18T17:21:42;0.77;;;0.77;;
17414;SDS011;8825;48.086;16.426;2023-02-18T17:24:10;1.30;;;0.93;;